Time;durP1;ratioP1;P1;durP2;ratioP2;P2;SDS_P1;SDS_P2;PMS_P1;PMS_P2;Temp;Humidity;BMP_temperature;BMP_pressure;BME280_temperature;BME280_humidity;BME280_pressure;Samples;Min_cycle;Max_cycle;Signal;HPM_P1;HPM_P2
2022/07/10 00:01:08;;;;;;;9.10;1.90;;;13.70;99.90;;;;;;5053013;28;20071;-83
2022/07/10 00:03:33;;;;;;;7.57;1.80;;;13.70;99.90;;;;;;5055638;28;20033;-83
2022/07/10 00:05:59;;;;;;;10.45;1.90;;;13.70;99.90;;;;;;5052335;28;20037;-82
2022/07/10 00:08:25;;;;;;;7.05;1.80;;;13.70;99.90;;;;;;5040628;28;20768;-82
2022/07/10 00:10:51;;;;;;;7.82;2.00;;;13.60;99.90;;;;;;5026223;28;20408;-82
2022/07/10 00:13:16;;;;;;;5.97;1.80;;;13.60;99.90;;;;;;5033675;28;20041;-82
2022/07/10 00:15:42;;;;;;;3.63;1.60;;;13.60;99.90;;;;;;5037724;28;20043;-82
2022/07/10 00:18:08;;;;;;;6.63;2.20;;;13.60;99.90;;;;;;5024109;28;20106;-82
2022/07/10 00:20:35;;;;;;;6.75;1.73;;;13.60;99.90;;;;;;5024873;28;20036;-83
2022/07/10 00:23:00;;;;;;;9.80;1.50;;;13.60;99.90;;;;;;5057399;28;20040;-82
2022/07/10 00:25:26;;;;;;;5.00;1.60;;;13.60;99.90;;;;;;5053817;28;20036;-82
2022/07/10 00:27:52;;;;;;;8.37;1.60;;;13.50;99.90;;;;;;5056779;28;20051;-82
2022/07/10 00:30:18;;;;;;;6.47;1.92;;;13.50;99.90;;;;;;5040402;28;20108;-82
2022/07/10 00:32:43;;;;;;;5.13;1.63;;;13.40;99.90;;;;;;5036292;28;20032;-82
2022/07/10 00:35:09;;;;;;;5.05;1.70;;;13.40;99.90;;;;;;5055580;28;20041;-82
2022/07/10 00:37:36;;;;;;;9.63;1.83;;;13.40;99.90;;;;;;5033416;28;20068;-82
2022/07/10 00:40:02;;;;;;;6.18;2.25;;;13.40;99.90;;;;;;5051989;28;20430;-82
2022/07/10 00:42:27;;;;;;;7.45;1.73;;;13.40;99.90;;;;;;5057186;28;20040;-82
2022/07/10 00:44:53;;;;;;;5.43;1.70;;;13.30;99.90;;;;;;5040826;28;20090;-82
2022/07/10 00:47:19;;;;;;;5.37;1.80;;;13.40;99.90;;;;;;5029596;28;20037;-82
2022/07/10 00:49:47;;;;;;;7.57;1.70;;;13.30;99.90;;;;;;5032091;28;20033;-82
2022/07/10 00:52:15;;;;;;;7.32;1.90;;;13.30;99.90;;;;;;5035010;28;20552;-82
2022/07/10 00:54:43;;;;;;;4.60;1.50;;;13.30;99.90;;;;;;5043444;28;20545;-82
2022/07/10 00:57:09;;;;;;;7.97;1.97;;;13.30;99.90;;;;;;5019651;28;20048;-82
2022/07/10 00:59:36;;;;;;;5.33;1.40;;;13.30;99.90;;;;;;5026708;28;20049;-82
2022/07/10 01:02:03;;;;;;;8.53;1.47;;;13.30;99.90;;;;;;5024843;28;20042;-82
2022/07/10 01:04:29;;;;;;;6.53;1.60;;;13.30;99.90;;;;;;5028519;28;20102;-82
2022/07/10 01:06:55;;;;;;;6.63;2.27;;;13.30;99.90;;;;;;5021422;28;20045;-82
2022/07/10 01:09:21;;;;;;;7.23;1.80;;;13.20;99.90;;;;;;5004974;28;20037;-82
2022/07/10 01:11:47;;;;;;;7.03;1.73;;;13.20;99.90;;;;;;5036247;28;20510;-82
2022/07/10 01:14:13;;;;;;;8.40;1.90;;;13.20;99.90;;;;;;5053974;28;20037;-82
2022/07/10 01:16:39;;;;;;;6.83;1.67;;;13.20;99.90;;;;;;5008270;28;20084;-82
2022/07/10 01:19:06;;;;;;;7.13;1.60;;;13.20;99.90;;;;;;5029163;28;20080;-82
2022/07/10 01:21:36;;;;;;;7.70;2.40;;;13.20;99.90;;;;;;5040302;28;20431;-82
2022/07/10 01:24:09;;;;;;;6.47;1.67;;;13.20;99.90;;;;;;5051039;28;20119;-82
2022/07/10 01:26:36;;;;;;;3.90;1.97;;;13.20;99.90;;;;;;5039115;28;20513;-82
2022/07/10 01:29:05;;;;;;;10.70;1.87;;;13.20;99.90;;;;;;5025380;28;20038;-82
2022/07/10 01:31:31;;;;;;;6.23;1.50;;;13.30;99.90;;;;;;5033570;28;20041;-82
2022/07/10 01:33:58;;;;;;;9.20;1.77;;;13.30;99.90;;;;;;5036476;28;20044;-81
2022/07/10 01:36:24;;;;;;;8.43;1.70;;;13.30;99.90;;;;;;5037910;28;20551;-82
2022/07/10 01:38:54;;;;;;;7.50;1.83;;;13.30;99.90;;;;;;5050473;28;20132;-82
2022/07/10 01:41:21;;;;;;;9.33;1.80;;;13.30;99.90;;;;;;5039452;28;20044;-82
2022/07/10 01:43:48;;;;;;;9.03;2.20;;;13.30;99.90;;;;;;5039081;28;20068;-81
2022/07/10 01:46:14;;;;;;;8.60;2.53;;;13.30;99.90;;;;;;5029424;28;20037;-82
2022/07/10 01:48:41;;;;;;;7.17;1.97;;;13.30;99.90;;;;;;5040454;28;20410;-82
2022/07/10 01:51:08;;;;;;;5.27;1.57;;;13.20;99.90;;;;;;5044156;28;20090;-82
2022/07/10 01:53:34;;;;;;;9.53;2.63;;;13.20;99.90;;;;;;5036061;28;20572;-82
2022/07/10 01:56:03;;;;;;;5.90;1.83;;;13.20;99.90;;;;;;5039832;28;20090;-82
2022/07/10 01:58:29;;;;;;;7.13;2.00;;;13.20;99.90;;;;;;5035186;28;20123;-82
2022/07/10 02:00:54;;;;;;;6.13;1.77;;;13.20;99.90;;;;;;5020327;28;20120;-82
2022/07/10 02:06:05;;;;;;;7.07;1.70;;;13.20;99.90;;;;;;5045964;28;20041;-82
2022/07/10 02:08:31;;;;;;;4.60;1.60;;;13.30;99.90;;;;;;5019589;28;20052;-82
2022/07/10 02:10:57;;;;;;;6.87;1.80;;;13.30;99.90;;;;;;5027775;28;20099;-82
2022/07/10 02:13:24;;;;;;;5.73;2.67;;;13.30;99.90;;;;;;5031852;28;20097;-82
2022/07/10 02:15:51;;;;;;;7.13;2.00;;;13.30;99.90;;;;;;5023469;28;20052;-82
2022/07/10 02:18:16;;;;;;;10.93;2.20;;;13.30;99.90;;;;;;5034285;28;20047;-83
2022/07/10 02:20:42;;;;;;;6.83;2.10;;;13.30;99.90;;;;;;5020313;28;20052;-82
2022/07/10 02:23:08;;;;;;;10.30;1.90;;;13.30;99.90;;;;;;5004783;28;20048;-82
2022/07/10 02:25:34;;;;;;;5.30;1.60;;;13.30;99.90;;;;;;5003405;28;20042;-82
2022/07/10 02:28:00;;;;;;;10.33;2.20;;;13.20;99.90;;;;;;5008416;28;20079;-83
2022/07/10 02:30:25;;;;;;;8.50;1.80;;;13.20;99.90;;;;;;5023681;28;20032;-82
2022/07/10 02:32:51;;;;;;;10.33;1.97;;;13.20;99.90;;;;;;5026998;28;20037;-82
2022/07/10 02:35:17;;;;;;;8.83;2.13;;;13.20;99.90;;;;;;5044179;28;20102;-82
2022/07/10 02:37:43;;;;;;;10.30;1.90;;;13.10;99.90;;;;;;5050005;28;20067;-82
2022/07/10 02:40:09;;;;;;;8.17;1.97;;;13.10;99.90;;;;;;5017071;28;20037;-82
2022/07/10 02:42:35;;;;;;;5.33;1.83;;;13.10;99.90;;;;;;5030631;28;20047;-82
2022/07/10 02:45:00;;;;;;;7.60;2.10;;;13.10;99.90;;;;;;5013735;28;20036;-82
2022/07/10 02:47:26;;;;;;;5.90;1.70;;;13.00;99.90;;;;;;5022907;28;20041;-82
2022/07/10 02:49:52;;;;;;;5.27;2.07;;;13.00;99.90;;;;;;5030810;28;20044;-82
2022/07/10 02:52:17;;;;;;;5.73;1.83;;;12.90;99.90;;;;;;5036573;28;20041;-82
2022/07/10 02:54:43;;;;;;;6.70;1.80;;;12.90;99.90;;;;;;5019840;28;20033;-82
2022/07/10 02:57:09;;;;;;;6.10;1.67;;;12.90;99.90;;;;;;5002825;28;20400;-82
2022/07/10 02:59:34;;;;;;;4.63;1.37;;;12.90;99.90;;;;;;5038719;28;20045;-82
2022/07/10 03:02:00;;;;;;;7.70;2.20;;;12.90;99.90;;;;;;5025061;28;20044;-83
2022/07/10 03:04:26;;;;;;;8.47;1.77;;;12.90;99.90;;;;;;5037589;28;20044;-82
2022/07/10 03:06:52;;;;;;;7.97;1.80;;;12.80;99.90;;;;;;5019713;28;20415;-82
2022/07/10 03:09:18;;;;;;;10.33;2.17;;;12.80;99.90;;;;;;5038568;28;20033;-82
2022/07/10 03:11:44;;;;;;;5.00;1.40;;;12.80;99.90;;;;;;5024700;28;20098;-82
2022/07/10 03:14:09;;;;;;;8.50;1.80;;;12.70;99.90;;;;;;5046858;28;20041;-82
2022/07/10 03:16:35;;;;;;;6.97;1.50;;;12.80;99.90;;;;;;5049340;28;20510;-83
2022/07/10 03:19:01;;;;;;;5.30;1.60;;;12.70;99.90;;;;;;5032784;28;20519;-81
2022/07/10 03:21:26;;;;;;;6.23;1.60;;;12.70;99.90;;;;;;5054759;28;20032;-82
2022/07/10 03:23:52;;;;;;;6.17;1.80;;;12.70;99.90;;;;;;5044930;28;20037;-82
2022/07/10 03:26:18;;;;;;;6.47;1.33;;;12.70;99.90;;;;;;5028103;28;20043;-82
2022/07/10 03:28:43;;;;;;;7.20;1.43;;;12.60;99.90;;;;;;5027202;28;20036;-81
2022/07/10 03:31:09;;;;;;;6.53;1.70;;;12.60;99.90;;;;;;5040028;28;20731;-82
2022/07/10 03:33:35;;;;;;;7.97;1.40;;;12.60;99.90;;;;;;5037432;28;20037;-82
2022/07/10 03:36:03;;;;;;;5.03;1.27;;;12.60;99.90;;;;;;5033024;28;20094;-82
2022/07/10 03:38:29;;;;;;;8.33;2.33;;;12.60;99.90;;;;;;5033793;28;20044;-82
2022/07/10 03:40:54;;;;;;;7.63;2.33;;;12.60;99.90;;;;;;4987361;28;20051;-82
2022/07/10 03:43:20;;;;;;;6.27;1.40;;;12.70;99.90;;;;;;5027253;28;20119;-82
2022/07/10 03:45:46;;;;;;;6.23;1.30;;;12.80;99.90;;;;;;5038251;28;20072;-82
2022/07/10 03:48:11;;;;;;;5.30;1.50;;;12.80;99.90;;;;;;5014422;28;20041;-83
2022/07/10 03:50:37;;;;;;;4.83;1.27;;;12.80;99.90;;;;;;5023882;28;20041;-82
2022/07/10 03:53:03;;;;;;;6.40;1.67;;;12.90;99.90;;;;;;5028296;28;20075;-82
2022/07/10 03:55:28;;;;;;;4.97;1.77;;;12.90;99.90;;;;;;5029552;28;20063;-82
2022/07/10 03:57:54;;;;;;;8.23;1.70;;;13.00;99.90;;;;;;5033612;28;20693;-83
2022/07/10 04:00:22;;;;;;;8.40;2.13;;;13.00;99.90;;;;;;5027068;28;20044;-82
2022/07/10 04:02:54;;;;;;;6.77;2.03;;;13.10;99.90;;;;;;5041401;28;20091;-82
2022/07/10 04:05:19;;;;;;;5.60;1.75;;;13.10;99.90;;;;;;5031816;28;20051;-82
2022/07/10 04:07:45;;;;;;;5.87;1.80;;;13.10;99.90;;;;;;5027995;28;20044;-83
2022/07/10 04:10:11;;;;;;;6.70;1.40;;;13.20;99.90;;;;;;5003288;28;20082;-82
2022/07/10 04:12:36;;;;;;;8.37;1.83;;;13.20;99.90;;;;;;5015003;28;20051;-82
2022/07/10 04:15:03;;;;;;;7.90;1.70;;;13.20;99.90;;;;;;5032885;28;20484;-84
2022/07/10 04:17:29;;;;;;;4.93;1.53;;;13.30;99.90;;;;;;5019429;28;20052;-82
2022/07/10 04:19:54;;;;;;;7.30;1.60;;;13.30;99.90;;;;;;5025151;28;20091;-82
2022/07/10 04:22:20;;;;;;;4.20;1.43;;;13.30;99.90;;;;;;5002049;28;20076;-82
2022/07/10 04:24:46;;;;;;;5.63;1.60;;;13.30;99.90;;;;;;5022407;28;20051;-83
2022/07/10 04:27:12;;;;;;;5.37;2.43;;;13.30;99.90;;;;;;5040458;28;20674;-82
2022/07/10 04:29:37;;;;;;;5.50;1.63;;;13.30;99.90;;;;;;4989533;28;20037;-82
2022/07/10 04:32:03;;;;;;;6.77;1.50;;;13.40;99.90;;;;;;5006748;28;20068;-83
2022/07/10 04:34:29;;;;;;;6.87;1.30;;;13.30;99.90;;;;;;5025341;28;20049;-82
2022/07/10 04:36:55;;;;;;;10.33;1.80;;;13.40;99.90;;;;;;5011723;28;20060;-82
2022/07/10 04:39:21;;;;;;;8.13;1.80;;;13.40;99.90;;;;;;5058053;28;20109;-82
2022/07/10 04:41:47;;;;;;;7.23;1.87;;;13.40;99.90;;;;;;5052005;28;20118;-82
2022/07/10 04:44:13;;;;;;;5.73;1.50;;;13.50;99.90;;;;;;5029755;28;20111;-82
2022/07/10 04:46:38;;;;;;;7.77;1.40;;;13.50;99.90;;;;;;5051027;28;20036;-82
2022/07/10 04:49:04;;;;;;;12.23;1.67;;;13.50;99.90;;;;;;5041258;28;20459;-83
2022/07/10 04:51:30;;;;;;;6.90;1.93;;;13.50;99.90;;;;;;5034461;28;20060;-82
2022/07/10 04:53:56;;;;;;;5.50;1.40;;;13.60;99.90;;;;;;5021534;28;20049;-82
2022/07/10 04:56:22;;;;;;;4.23;1.80;;;13.70;99.90;;;;;;5034722;28;20040;-82
2022/07/10 04:58:48;;;;;;;6.87;1.67;;;13.70;99.90;;;;;;5013088;28;20040;-82
2022/07/10 05:01:14;;;;;;;8.20;1.80;;;13.70;99.90;;;;;;5048091;28;20438;-83
2022/07/10 05:03:39;;;;;;;4.97;1.37;;;13.70;99.90;;;;;;5041089;28;20036;-82
2022/07/10 05:06:05;;;;;;;7.50;1.77;;;13.80;99.90;;;;;;5023833;28;20041;-83
2022/07/10 05:08:30;;;;;;;10.10;1.40;;;13.80;99.90;;;;;;5040441;28;20535;-82
2022/07/10 05:10:56;;;;;;;8.23;1.80;;;13.80;99.90;;;;;;5041931;28;20036;-83
2022/07/10 05:13:22;;;;;;;5.37;1.83;;;13.90;99.90;;;;;;5033238;28;20021;-81
2022/07/10 05:15:48;;;;;;;7.47;1.80;;;13.90;99.90;;;;;;5026712;28;20056;-83
2022/07/10 05:18:13;;;;;;;7.90;1.90;;;13.90;99.90;;;;;;5033101;28;20052;-82
2022/07/10 05:20:42;;;;;;;9.20;1.83;;;14.00;99.90;;;;;;5038634;28;20045;-82
2022/07/10 05:23:08;;;;;;;4.53;1.57;;;14.00;99.90;;;;;;5005008;28;20122;-82
2022/07/10 05:25:33;;;;;;;9.65;1.90;;;14.10;99.90;;;;;;5033343;28;20079;-82
2022/07/10 05:27:59;;;;;;;4.63;1.80;;;14.10;99.90;;;;;;5054152;28;20048;-83
2022/07/10 05:30:25;;;;;;;7.87;1.90;;;14.10;99.90;;;;;;5037573;28;20044;-82
2022/07/10 05:32:50;;;;;;;4.78;1.48;;;14.20;99.90;;;;;;5021520;28;20065;-82
2022/07/10 05:35:16;;;;;;;4.65;1.70;;;14.20;99.90;;;;;;5023534;28;20391;-83
2022/07/10 05:37:42;;;;;;;7.53;1.70;;;14.20;99.90;;;;;;5009764;28;20112;-82
2022/07/10 05:40:08;;;;;;;7.50;1.73;;;14.30;99.90;;;;;;5004630;28;20037;-83
2022/07/10 05:42:34;;;;;;;8.73;1.50;;;14.30;99.90;;;;;;5032952;28;20033;-82
2022/07/10 05:45:00;;;;;;;5.65;1.55;;;14.30;99.90;;;;;;5021182;28;20623;-83
2022/07/10 05:47:26;;;;;;;9.07;1.77;;;14.40;99.90;;;;;;5025486;28;20037;-83
2022/07/10 05:49:51;;;;;;;5.10;1.67;;;14.40;99.90;;;;;;5033727;28;20484;-83
2022/07/10 05:52:17;;;;;;;7.60;1.83;;;14.40;99.90;;;;;;5027661;28;20042;-82
2022/07/10 05:54:43;;;;;;;11.43;2.65;;;14.50;99.90;;;;;;5040130;28;20510;-82
2022/07/10 05:57:08;;;;;;;9.63;2.30;;;14.50;99.90;;;;;;5050270;28;20476;-83
2022/07/10 05:59:35;;;;;;;8.63;1.65;;;14.50;99.90;;;;;;5019929;28;20040;-83
2022/07/10 06:02:04;;;;;;;5.50;1.60;;;14.60;99.90;;;;;;5039138;28;20127;-83
2022/07/10 06:04:30;;;;;;;8.75;1.95;;;14.60;99.90;;;;;;5023553;28;20041;-82
2022/07/10 06:06:56;;;;;;;9.57;2.05;;;14.60;99.90;;;;;;5054280;28;20044;-83
2022/07/10 06:09:21;;;;;;;5.70;1.77;;;14.70;99.90;;;;;;5035902;28;20036;-83
2022/07/10 06:11:49;;;;;;;5.85;1.58;;;14.70;99.90;;;;;;5014603;28;20162;-83
2022/07/10 06:14:15;;;;;;;7.80;1.60;;;14.80;99.90;;;;;;5008717;28;20072;-82
2022/07/10 06:16:40;;;;;;;7.00;1.60;;;14.80;99.90;;;;;;5046525;28;20157;-82
2022/07/10 06:19:06;;;;;;;10.23;2.10;;;14.80;99.90;;;;;;5033463;28;20158;-83
2022/07/10 06:21:32;;;;;;;7.97;2.25;;;14.80;99.90;;;;;;5029716;28;20044;-83
2022/07/10 06:23:58;;;;;;;5.75;1.90;;;14.90;99.90;;;;;;5037367;28;20041;-82
2022/07/10 06:26:24;;;;;;;7.00;1.70;;;15.00;99.90;;;;;;4997073;28;20043;-83
2022/07/10 06:28:50;;;;;;;8.50;1.90;;;15.00;99.90;;;;;;5037174;28;20033;-82
2022/07/10 06:31:16;;;;;;;5.20;1.70;;;15.00;99.90;;;;;;5036113;28;20373;-83
2022/07/10 06:33:42;;;;;;;9.70;1.92;;;15.00;99.90;;;;;;5017306;28;20037;-83
2022/07/10 06:36:08;;;;;;;7.43;1.67;;;15.00;99.90;;;;;;5055718;28;20423;-82
2022/07/10 06:38:34;;;;;;;8.30;1.90;;;15.00;99.90;;;;;;5038846;28;20044;-83
2022/07/10 06:41:00;;;;;;;5.55;1.95;;;15.00;99.90;;;;;;5035713;28;20507;-83
2022/07/10 06:43:25;;;;;;;4.43;1.70;;;15.00;99.90;;;;;;5003111;28;20120;-83
2022/07/10 06:45:51;;;;;;;11.07;2.08;;;15.00;99.90;;;;;;5027267;28;20106;-83
2022/07/10 06:48:17;;;;;;;7.03;1.90;;;15.00;99.90;;;;;;5022853;28;20124;-82
2022/07/10 06:50:43;;;;;;;7.05;1.70;;;14.90;99.90;;;;;;5050827;28;20071;-83
2022/07/10 06:53:08;;;;;;;8.68;2.15;;;14.90;99.90;;;;;;5003192;28;20476;-85
2022/07/10 06:55:35;;;;;;;7.95;1.98;;;14.80;99.90;;;;;;5002759;28;20405;-83
2022/07/10 06:58:01;;;;;;;9.57;2.20;;;14.70;99.90;;;;;;5038573;28;20047;-84
2022/07/10 07:00:27;;;;;;;11.35;2.58;;;14.60;99.90;;;;;;5049043;28;20037;-83
2022/07/10 07:02:53;;;;;;;7.10;2.50;;;14.50;99.90;;;;;;5036634;28;20481;-83
2022/07/10 07:05:19;;;;;;;10.65;2.22;;;14.60;99.90;;;;;;5011182;28;20036;-84
2022/07/10 07:07:45;;;;;;;7.68;2.30;;;14.60;99.90;;;;;;5052062;28;20055;-85
2022/07/10 07:10:11;;;;;;;6.90;2.40;;;14.60;99.90;;;;;;5035884;28;20113;-83
2022/07/10 07:12:37;;;;;;;7.53;2.28;;;14.70;99.90;;;;;;5010598;28;20037;-85
2022/07/10 07:15:03;;;;;;;4.43;2.05;;;14.80;99.90;;;;;;5030120;28;20403;-85
2022/07/10 07:17:46;;;;;;;6.97;2.10;;;14.80;99.90;;;;;;5020888;28;20088;-85
2022/07/10 07:23:12;;;;;;;7.35;2.53;;;14.80;99.90;;;;;;5049216;28;20053;-86
2022/07/10 07:25:46;;;;;;;5.27;2.03;;;14.80;99.90;;;;;;5044078;28;20040;-84
2022/07/10 07:28:15;;;;;;;10.75;2.42;;;14.80;99.90;;;;;;5031637;28;20041;-85
2022/07/10 07:30:44;;;;;;;8.82;2.45;;;14.80;99.90;;;;;;5015402;28;20071;-84
2022/07/10 07:33:10;;;;;;;8.18;2.10;;;14.80;99.90;;;;;;5034766;28;20489;-85
2022/07/10 07:35:36;;;;;;;5.65;2.17;;;14.70;99.90;;;;;;5036498;28;20071;-84
2022/07/10 07:38:03;;;;;;;11.32;2.70;;;14.80;99.90;;;;;;5038171;28;20496;-85
2022/07/10 07:40:29;;;;;;;8.57;2.38;;;14.90;99.90;;;;;;5012936;28;20045;-85
2022/07/10 07:42:55;;;;;;;5.47;2.08;;;15.00;99.90;;;;;;5037097;28;20045;-84
2022/07/10 07:45:22;;;;;;;7.32;2.10;;;15.10;99.90;;;;;;5038316;28;20045;-86
2022/07/10 07:47:49;;;;;;;6.63;2.03;;;15.30;99.90;;;;;;5038550;28;20043;-85
2022/07/10 07:50:16;;;;;;;8.48;2.10;;;15.40;99.90;;;;;;5057435;28;20036;-85
2022/07/10 07:52:42;;;;;;;7.85;2.13;;;15.50;99.90;;;;;;5040871;28;20136;-84
2022/07/10 07:55:09;;;;;;;8.57;2.13;;;15.60;99.90;;;;;;5024967;28;20051;-84
2022/07/10 07:57:34;;;;;;;6.95;1.75;;;15.70;99.90;;;;;;5039396;28;20040;-86
2022/07/10 08:00:00;;;;;;;10.85;2.05;;;15.80;99.90;;;;;;5009470;28;20127;-85
2022/07/10 08:02:26;;;;;;;6.60;1.73;;;15.80;99.90;;;;;;5020047;28;20075;-86
2022/07/10 08:04:52;;;;;;;4.13;1.52;;;15.70;99.90;;;;;;5016839;28;20067;-83
2022/07/10 08:07:17;;;;;;;5.03;1.30;;;15.50;99.90;;;;;;5042756;28;20093;-84
2022/07/10 08:09:44;;;;;;;4.70;1.30;;;15.40;99.90;;;;;;5039126;28;20033;-84
2022/07/10 08:12:10;;;;;;;3.15;1.20;;;15.30;99.90;;;;;;5059288;28;20075;-84
2022/07/10 08:14:36;;;;;;;4.65;1.40;;;15.20;99.90;;;;;;5026140;28;20056;-84
2022/07/10 08:17:01;;;;;;;7.55;2.22;;;15.10;99.90;;;;;;5042151;28;20060;-84
2022/07/10 08:19:27;;;;;;;3.72;1.23;;;15.00;99.90;;;;;;5027577;28;20127;-84
2022/07/10 08:21:53;;;;;;;4.05;1.27;;;15.00;99.90;;;;;;5012682;28;20045;-85
2022/07/10 08:24:18;;;;;;;5.65;1.67;;;15.00;99.90;;;;;;5041812;28;20506;-84
2022/07/10 08:26:44;;;;;;;5.70;1.80;;;15.00;99.90;;;;;;5032246;28;20037;-84
2022/07/10 08:29:10;;;;;;;9.63;1.85;;;15.10;99.90;;;;;;5020274;28;20037;-85
2022/07/10 08:31:36;;;;;;;4.07;1.42;;;15.20;99.90;;;;;;5041515;28;20123;-84
2022/07/10 08:34:01;;;;;;;5.95;1.50;;;15.30;99.90;;;;;;5021752;28;20103;-84
2022/07/10 08:36:27;;;;;;;5.20;1.75;;;15.40;99.90;;;;;;5023637;28;20051;-84
2022/07/10 08:38:58;;;;;;;6.18;1.55;;;15.40;99.90;;;;;;5014555;28;20067;-85
2022/07/10 08:41:27;;;;;;;5.85;1.17;;;15.50;99.90;;;;;;5006860;28;20044;-83
2022/07/10 08:43:53;;;;;;;5.30;1.33;;;15.50;99.90;;;;;;5025432;28;20526;-85
2022/07/10 08:46:20;;;;;;;5.90;1.20;;;15.50;99.90;;;;;;5009689;28;20098;-85
2022/07/10 08:48:48;;;;;;;4.93;1.80;;;15.40;99.90;;;;;;5026130;28;20037;-83
2022/07/10 08:51:45;;;;;;;4.22;1.17;;;15.50;99.90;;;;;;5040057;28;20051;-84
2022/07/10 08:54:14;;;;;;;4.05;1.45;;;15.50;99.90;;;;;;5023036;28;20049;-83
2022/07/10 08:56:40;;;;;;;4.70;1.17;;;15.60;99.90;;;;;;5023558;28;20048;-84
2022/07/10 08:59:08;;;;;;;4.38;1.30;;;15.60;99.90;;;;;;5027146;28;20036;-84
2022/07/10 09:01:34;;;;;;;3.20;1.40;;;15.60;99.90;;;;;;5042604;28;20732;-84
2022/07/10 09:04:00;;;;;;;5.75;1.33;;;15.70;99.90;;;;;;5044265;28;20115;-83
2022/07/10 09:06:28;;;;;;;5.03;1.45;;;15.70;99.90;;;;;;5027825;28;20025;-83
2022/07/10 09:09:04;;;;;;;4.55;1.25;;;15.60;99.90;;;;;;5025928;28;20657;-84
2022/07/10 09:11:31;;;;;;;3.63;1.70;;;15.50;99.90;;;;;;5041135;28;20115;-85
2022/07/10 09:13:59;;;;;;;3.30;1.35;;;15.50;99.90;;;;;;5024901;28;20106;-84
2022/07/10 09:16:27;;;;;;;4.18;1.50;;;15.40;99.90;;;;;;5024418;28;20048;-84
2022/07/10 09:18:54;;;;;;;3.25;1.17;;;15.50;99.90;;;;;;5029837;28;20048;-84
2022/07/10 09:21:21;;;;;;;4.43;1.45;;;15.70;99.90;;;;;;5025556;28;20041;-85
2022/07/10 09:23:47;;;;;;;2.38;1.25;;;15.90;99.90;;;;;;5021323;28;20064;-85
2022/07/10 09:26:13;;;;;;;5.20;1.17;;;15.90;99.90;;;;;;5027428;28;20048;-86
2022/07/10 09:28:38;;;;;;;2.75;1.60;;;16.00;99.90;;;;;;5026790;28;20025;-85
2022/07/10 09:31:05;;;;;;;4.45;1.40;;;16.10;99.90;;;;;;5029776;28;20480;-85
2022/07/10 09:33:33;;;;;;;6.10;1.20;;;16.00;99.90;;;;;;5007309;28;20044;-86
2022/07/10 09:36:12;;;;;;;3.63;2.08;;;16.10;99.90;;;;;;5009110;28;20404;-86
2022/07/10 09:38:44;;;;;;;5.35;1.42;;;16.20;99.90;;;;;;5026461;28;20055;-86
2022/07/10 09:41:16;;;;;;;4.03;1.35;;;16.30;99.90;;;;;;5045938;28;20567;-86
2022/07/10 09:43:47;;;;;;;3.28;1.00;;;16.60;99.90;;;;;;5008902;28;20033;-85
2022/07/10 09:46:13;;;;;;;2.97;1.02;;;16.60;99.90;;;;;;5013191;28;20041;-87
2022/07/10 09:48:40;;;;;;;2.65;0.90;;;16.60;99.90;;;;;;5011968;28;20094;-87
2022/07/10 09:51:11;;;;;;;4.28;1.00;;;16.60;99.90;;;;;;5024230;28;20362;-85
2022/07/10 09:53:42;;;;;;;3.55;0.90;;;16.70;99.90;;;;;;5032341;28;20047;-87
2022/07/10 09:56:09;;;;;;;3.63;1.07;;;16.60;99.90;;;;;;5046996;28;20125;-86
2022/07/10 09:58:36;;;;;;;4.28;1.02;;;16.60;99.90;;;;;;5025428;28;20410;-85
2022/07/10 10:01:03;;;;;;;3.08;1.10;;;16.50;99.90;;;;;;5019882;28;20071;-84
2022/07/10 10:03:34;;;;;;;5.35;1.05;;;16.40;99.90;;;;;;5020158;28;20037;-85
2022/07/10 10:06:05;;;;;;;3.00;1.05;;;16.30;99.90;;;;;;5023464;28;20094;-84
2022/07/10 10:08:37;;;;;;;4.93;1.17;;;16.30;99.90;;;;;;5039202;28;20063;-84
2022/07/10 10:11:04;;;;;;;;;;;16.20;99.90;;;;;;5020439;28;20279;-84
2022/07/10 10:13:32;;;;;;;3.83;1.30;;;16.20;99.90;;;;;;5036025;28;19924;-83
2022/07/10 10:15:58;;;;;;;2.72;1.10;;;16.00;99.90;;;;;;4989916;28;20053;-84
2022/07/10 10:18:25;;;;;;;1.95;1.15;;;16.00;99.90;;;;;;5032138;28;20385;-83
2022/07/10 10:20:53;;;;;;;2.22;1.05;;;15.90;99.90;;;;;;5038810;28;20090;-84
2022/07/10 10:23:20;;;;;;;3.90;1.15;;;15.70;99.90;;;;;;5039954;28;20380;-84
2022/07/10 10:25:56;;;;;;;1.80;1.00;;;15.70;99.90;;;;;;5039937;28;20044;-84
2022/07/10 10:28:24;;;;;;;1.58;1.13;;;15.60;99.90;;;;;;5043753;28;20025;-85
2022/07/10 10:30:53;;;;;;;1.77;1.27;;;15.60;99.90;;;;;;5055387;28;20087;-84
2022/07/10 10:33:34;;;;;;;2.05;1.23;;;15.70;99.90;;;;;;5060388;28;20040;-84
2022/07/10 10:36:02;;;;;;;3.33;1.10;;;15.70;99.90;;;;;;5052479;28;20504;-84
2022/07/10 10:38:47;;;;;;;2.17;1.38;;;15.70;99.90;;;;;;5035953;28;20041;-84
2022/07/10 10:41:48;;;;;;;3.83;1.50;;;15.70;99.90;;;;;;5035680;28;20086;-83
2022/07/10 10:44:17;;;;;;;3.07;1.37;;;15.70;99.90;;;;;;5002612;28;20488;-84
2022/07/10 10:47:00;;;;;;;1.70;1.40;;;15.80;99.90;;;;;;5052691;28;20045;-85
2022/07/10 10:49:27;;;;;;;3.67;1.33;;;15.80;99.90;;;;;;5055220;28;20044;-84
2022/07/10 10:52:03;;;;;;;2.65;1.60;;;15.80;99.90;;;;;;5033829;28;20503;-84
2022/07/10 10:54:30;;;;;;;3.00;1.55;;;15.80;99.90;;;;;;5056377;28;20048;-83
2022/07/10 10:57:13;;;;;;;2.70;1.50;;;15.70;99.90;;;;;;5022135;28;20049;-82
2022/07/10 10:59:53;;;;;;;2.63;1.65;;;15.70;99.90;;;;;;5037618;28;20119;-84
2022/07/10 11:02:25;;;;;;;2.33;1.42;;;15.70;99.90;;;;;;5019244;28;20480;-83
2022/07/10 11:04:51;;;;;;;4.55;1.67;;;15.80;99.90;;;;;;5036027;28;20083;-83
2022/07/10 11:07:54;;;;;;;4.47;1.95;;;15.80;99.90;;;;;;5035692;28;20033;-84
2022/07/10 11:10:35;;;;;;;4.60;2.00;;;15.80;99.90;;;;;;5019124;28;20041;-83
2022/07/10 11:13:02;;;;;;;3.65;1.92;;;15.90;99.90;;;;;;5053548;28;20045;-82
2022/07/10 11:15:30;;;;;;;4.30;2.22;;;15.90;99.90;;;;;;5022687;28;20045;-83
2022/07/10 11:18:18;;;;;;;3.22;2.00;;;15.90;99.90;;;;;;5010306;28;20760;-84
2022/07/10 11:20:46;;;;;;;6.20;2.45;;;15.80;99.90;;;;;;5035487;28;20033;-83
2022/07/10 11:23:51;;;;;;;5.07;2.30;;;15.80;99.90;;;;;;5037890;28;20044;-84
2022/07/10 11:26:39;;;;;;;3.58;1.95;;;15.80;99.90;;;;;;5055067;28;20048;-83
2022/07/10 11:29:06;;;;;;;6.10;2.40;;;15.70;99.90;;;;;;5029999;28;20047;-83
2022/07/10 11:31:37;;;;;;;6.75;3.47;;;15.70;99.90;;;;;;5018754;28;20068;-83
2022/07/10 11:34:04;;;;;;;8.15;2.95;;;15.80;99.90;;;;;;5035052;28;20040;-83
2022/07/10 11:36:31;;;;;;;5.70;2.70;;;15.80;99.90;;;;;;5003289;28;20041;-84
2022/07/10 11:39:02;;;;;;;6.25;2.72;;;16.00;99.90;;;;;;5032538;28;20083;-84
2022/07/10 11:41:28;;;;;;;5.75;2.30;;;16.10;99.90;;;;;;5035509;28;20147;-83
2022/07/10 11:43:57;;;;;;;11.80;3.47;;;16.10;99.90;;;;;;5043349;28;20519;-84
2022/07/10 11:46:28;;;;;;;6.10;2.63;;;16.20;99.90;;;;;;5031407;28;20074;-84
2022/07/10 11:48:56;;;;;;;6.70;2.55;;;16.20;99.90;;;;;;5038159;28;20041;-84
2022/07/10 11:51:31;;;;;;;5.38;2.60;;;16.20;99.90;;;;;;5038675;28;20496;-83
2022/07/10 11:54:05;;;;;;;4.45;2.58;;;16.30;99.90;;;;;;5019873;28;20124;-83
2022/07/10 11:56:36;;;;;;;9.07;2.97;;;16.50;99.90;;;;;;5034623;28;20045;-84
2022/07/10 11:59:08;;;;;;;6.40;2.65;;;16.60;99.90;;;;;;5021081;28;20044;-84
2022/07/10 12:01:46;;;;;;;6.50;2.97;;;16.80;99.90;;;;;;5026182;28;20476;-83
2022/07/10 12:04:13;;;;;;;6.40;2.80;;;16.90;99.90;;;;;;5021512;28;20044;-84
2022/07/10 12:06:42;;;;;;;3.97;2.50;;;17.00;99.90;;;;;;5042107;28;20594;-84
2022/07/10 12:09:20;;;;;;;5.38;2.42;;;16.90;99.90;;;;;;5039893;28;20071;-84
2022/07/10 12:11:59;;;;;;;6.78;2.75;;;16.90;99.90;;;;;;5027052;28;20454;-83
2022/07/10 12:14:26;;;;;;;7.88;2.80;;;16.90;99.90;;;;;;5046384;28;20041;-83
2022/07/10 12:16:53;;;;;;;4.85;2.83;;;16.80;99.90;;;;;;5027369;28;20400;-83
2022/07/10 12:19:33;;;;;;;11.02;2.85;;;16.80;99.90;;;;;;5027257;28;20049;-82
2022/07/10 12:22:00;;;;;;;4.03;2.30;;;16.80;99.90;;;;;;5023582;28;20064;-84
2022/07/10 12:24:26;;;;;;;2.85;2.15;;;16.80;99.90;;;;;;5035506;28;20068;-84
2022/07/10 12:26:55;;;;;;;3.85;2.00;;;16.90;99.90;;;;;;5018522;28;20045;-83
2022/07/10 12:29:27;;;;;;;4.45;2.28;;;16.90;99.90;;;;;;5018797;28;20036;-84
2022/07/10 12:32:03;;;;;;;6.28;2.00;;;17.00;99.90;;;;;;5034706;28;20045;-84
2022/07/10 12:34:39;;;;;;;4.38;1.90;;;17.10;99.90;;;;;;5038037;28;20051;-84
2022/07/10 12:37:12;;;;;;;2.05;1.65;;;17.10;99.90;;;;;;5038201;28;20074;-84
2022/07/10 12:39:52;;;;;;;2.63;1.60;;;16.90;99.90;;;;;;5054589;28;20052;-83
2022/07/10 12:42:31;;;;;;;6.53;2.05;;;16.80;99.90;;;;;;5052293;28;20514;-83
2022/07/10 12:45:10;;;;;;;6.03;1.90;;;16.50;99.90;;;;;;5020422;28;20041;-82
2022/07/10 12:47:48;;;;;;;3.30;1.65;;;16.50;99.90;;;;;;5035336;28;20044;-84
2022/07/10 12:50:16;;;;;;;3.20;1.83;;;16.40;99.90;;;;;;5038501;28;20044;-82
2022/07/10 12:52:41;;;;;;;5.10;2.22;;;16.30;99.90;;;;;;5038072;28;20041;-84
2022/07/10 12:55:13;;;;;;;2.78;1.83;;;16.30;99.90;;;;;;5034889;28;20067;-82